Time;durP1;ratioP1;P1;durP2;ratioP2;P2;SDS_P1;SDS_P2;PMS_P1;PMS_P2;Temp;Humidity;BMP_temperature;BMP_pressure;BME280_temperature;BME280_humidity;BME280_pressure;Samples;Min_cycle;Max_cycle;Signal;HPM_P1;HPM_P2
2020/12/13 00:01:36;;;;;;;84.47;47.30;;;3.40;1.00;;;;;;5004949;28;20204;-73
2020/12/13 00:04:02;;;;;;;90.50;48.92;;;3.40;1.00;;;;;;5029465;28;20234;-74
2020/12/13 00:06:31;;;;;;;90.50;48.95;;;3.40;1.00;;;;;;5007115;28;20227;-74
2020/12/13 00:08:57;;;;;;;87.38;46.97;;;3.40;1.00;;;;;;5015501;28;20234;-74
2020/12/13 00:11:24;;;;;;;97.00;48.67;;;3.40;1.00;;;;;;4999987;28;20329;-74
2020/12/13 00:13:50;;;;;;;78.78;48.40;;;3.40;1.00;;;;;;5009017;28;20262;-74
2020/12/13 00:16:17;;;;;;;82.93;46.00;;;3.50;1.00;;;;;;4982714;28;20249;-74
2020/12/13 00:18:44;;;;;;;92.28;50.33;;;3.50;1.00;;;;;;5007123;28;20231;-74
2020/12/13 00:21:12;;;;;;;74.97;46.80;;;3.50;1.00;;;;;;4991513;28;20227;-73
2020/12/13 00:23:38;;;;;;;86.28;48.95;;;3.50;1.00;;;;;;4994870;28;20243;-74
2020/12/13 00:26:06;;;;;;;94.25;47.72;;;3.40;1.00;;;;;;5009270;28;20225;-73
2020/12/13 00:28:34;;;;;;;82.00;47.97;;;3.40;1.00;;;;;;4986349;28;20987;-74
2020/12/13 00:31:00;;;;;;;85.55;46.20;;;3.40;1.00;;;;;;5006251;28;21015;-73
2020/12/13 00:33:26;;;;;;;85.88;48.92;;;3.40;1.00;;;;;;4986244;28;20231;-73
2020/12/13 00:35:52;;;;;;;85.90;48.67;;;3.40;1.00;;;;;;4999815;28;20246;-74
2020/12/13 00:38:20;;;;;;;84.55;47.90;;;3.40;1.00;;;;;;4986632;28;20231;-73
2020/12/13 00:40:48;;;;;;;85.65;47.60;;;3.40;1.00;;;;;;5005913;28;20327;-73
2020/12/13 00:43:14;;;;;;;90.13;48.88;;;3.40;1.00;;;;;;4984203;28;20281;-72
2020/12/13 00:45:41;;;;;;;93.32;48.83;;;3.40;1.00;;;;;;5007006;28;20230;-72
2020/12/13 00:48:09;;;;;;;85.03;46.55;;;3.40;1.00;;;;;;4987713;28;20238;-73
2020/12/13 00:50:37;;;;;;;92.25;50.10;;;3.40;1.00;;;;;;5003425;28;20238;-73
2020/12/13 00:53:04;;;;;;;88.00;50.05;;;3.40;1.00;;;;;;4982104;28;20317;-73
2020/12/13 00:55:30;;;;;;;92.10;50.78;;;3.40;1.00;;;;;;5003525;28;20230;-72
2020/12/13 00:57:57;;;;;;;83.75;47.42;;;3.40;1.00;;;;;;4981765;28;20579;-73
2020/12/13 01:00:23;;;;;;;82.85;49.65;;;3.40;1.00;;;;;;5003044;28;20270;-73
2020/12/13 01:02:51;;;;;;;94.30;49.33;;;3.40;1.00;;;;;;4991653;28;20322;-74
2020/12/13 01:05:18;;;;;;;99.57;53.00;;;3.30;1.00;;;;;;4995173;28;20219;-72
2020/12/13 01:07:44;;;;;;;89.00;49.65;;;3.30;1.00;;;;;;5005996;28;20227;-73
2020/12/13 01:10:10;;;;;;;93.05;49.20;;;3.30;1.00;;;;;;4985985;28;20230;-73
2020/12/13 01:12:36;;;;;;;99.18;52.58;;;3.40;1.00;;;;;;5002911;28;20997;-73
2020/12/13 01:15:05;;;;;;;83.68;49.90;;;3.40;1.00;;;;;;4988922;28;20227;-73
2020/12/13 01:17:32;;;;;;;85.50;49.80;;;3.40;1.00;;;;;;5000084;28;20219;-72
2020/12/13 01:19:58;;;;;;;84.28;47.90;;;3.40;1.00;;;;;;4989499;28;20219;-74
2020/12/13 01:22:25;;;;;;;89.68;48.08;;;3.40;1.00;;;;;;5000669;28;20325;-73
2020/12/13 01:24:51;;;;;;;86.75;50.10;;;3.50;1.00;;;;;;4983806;28;20227;-73
2020/12/13 01:27:18;;;;;;;99.60;48.72;;;3.40;1.00;;;;;;5007090;28;20219;-73
2020/12/13 01:29:45;;;;;;;92.82;50.17;;;3.50;1.00;;;;;;4986446;28;20219;-73
2020/12/13 01:32:11;;;;;;;92.93;51.28;;;3.50;1.00;;;;;;5006433;28;20241;-73
2020/12/13 01:34:37;;;;;;;80.93;46.58;;;3.50;1.00;;;;;;4972549;28;20301;-73
2020/12/13 01:37:04;;;;;;;86.43;50.75;;;3.50;1.00;;;;;;5003566;28;21030;-72
2020/12/13 01:39:30;;;;;;;90.72;50.63;;;3.50;1.00;;;;;;4979225;28;20223;-72
2020/12/13 01:41:57;;;;;;;92.20;50.55;;;3.50;1.00;;;;;;5006918;28;20223;-72
2020/12/13 01:44:30;;;;;;;85.78;49.83;;;3.50;1.00;;;;;;4978347;28;20238;-72
2020/12/13 01:46:56;;;;;;;84.68;49.50;;;3.50;1.00;;;;;;5003095;28;20230;-73
2020/12/13 01:49:31;;;;;;;89.97;50.40;;;3.50;1.00;;;;;;5002886;28;20212;-74
2020/12/13 01:52:37;;;;;;;87.03;48.63;;;3.50;1.00;;;;;;5000888;28;20758;-73
2020/12/13 01:54:58;;;;;;;90.10;51.88;;;3.50;1.00;;;;;;4981739;28;20223;-73
2020/12/13 01:57:27;;;;;;;88.55;49.83;;;3.50;1.00;;;;;;5003658;28;21057;-73
2020/12/13 01:59:58;;;;;;;87.40;50.70;;;3.50;1.00;;;;;;4992506;28;20233;-72
2020/12/13 02:02:27;;;;;;;85.40;49.13;;;3.50;1.00;;;;;;5005561;28;20239;-72
2020/12/13 02:04:55;;;;;;;89.80;48.33;;;3.50;1.00;;;;;;4997593;28;20279;-72
2020/12/13 02:07:23;;;;;;;85.68;48.53;;;3.50;1.00;;;;;;4977689;28;20226;-72
2020/12/13 02:09:49;;;;;;;86.40;49.53;;;3.50;1.00;;;;;;5001453;28;20233;-72
2020/12/13 02:12:16;;;;;;;98.82;52.08;;;3.50;1.00;;;;;;4974780;28;20239;-72
2020/12/13 02:14:42;;;;;;;81.95;48.17;;;3.50;1.00;;;;;;5006424;28;20223;-72
2020/12/13 02:17:09;;;;;;;84.53;49.13;;;3.50;1.00;;;;;;4978762;28;20969;-73
2020/12/13 02:19:36;;;;;;;94.93;49.50;;;3.60;1.00;;;;;;5003932;28;20271;-73
2020/12/13 02:22:08;;;;;;;95.45;50.17;;;3.50;1.00;;;;;;4981565;28;20223;-73
2020/12/13 02:24:34;;;;;;;87.13;52.75;;;3.50;1.00;;;;;;5003852;28;20231;-73
2020/12/13 02:27:06;;;;;;;85.68;48.42;;;3.50;1.00;;;;;;4980957;28;20306;-73
2020/12/13 02:29:32;;;;;;;90.55;49.95;;;3.50;1.00;;;;;;5000980;28;20219;-74
2020/12/13 02:31:59;;;;;;;89.70;49.45;;;3.50;1.00;;;;;;4979707;28;20342;-74
2020/12/13 02:34:25;;;;;;;89.88;47.30;;;3.50;1.00;;;;;;5005550;28;20257;-74
2020/12/13 02:36:51;;;;;;;86.13;49.92;;;3.40;1.00;;;;;;4982420;28;21018;-74
2020/12/13 02:39:18;;;;;;;87.20;49.10;;;3.50;1.00;;;;;;5005725;28;20815;-74
2020/12/13 02:41:57;;;;;;;90.50;49.33;;;3.50;1.00;;;;;;4982219;28;20223;-74
2020/12/13 02:44:24;;;;;;;99.45;49.58;;;3.50;1.00;;;;;;5005669;28;20234;-74
2020/12/13 02:46:50;;;;;;;86.47;48.70;;;3.50;1.00;;;;;;4978847;28;20222;-71
2020/12/13 02:49:17;;;;;;;93.57;51.88;;;3.50;1.00;;;;;;5006740;28;20237;-73
2020/12/13 02:51:43;;;;;;;84.82;51.38;;;3.50;1.00;;;;;;5002511;28;20250;-72
2020/12/13 02:54:09;;;;;;;88.55;48.00;;;3.60;1.00;;;;;;4978221;28;20317;-72
2020/12/13 02:56:40;;;;;;;92.63;50.90;;;3.60;1.00;;;;;;5006762;28;20224;-72
2020/12/13 02:59:06;;;;;;;92.72;48.88;;;3.50;1.00;;;;;;4978043;28;20229;-72
2020/12/13 03:01:33;;;;;;;98.70;52.03;;;3.50;1.00;;;;;;5007303;28;20233;-72
2020/12/13 03:03:59;;;;;;;84.45;46.20;;;3.60;1.00;;;;;;4983888;28;20882;-72
2020/12/13 03:06:25;;;;;;;88.85;50.22;;;3.60;1.00;;;;;;4992948;28;20223;-72
2020/12/13 03:08:51;;;;;;;88.93;49.42;;;3.60;1.00;;;;;;4980147;28;20351;-72
2020/12/13 03:11:20;;;;;;;96.03;50.45;;;3.60;1.00;;;;;;4995112;28;20261;-72
2020/12/13 03:13:49;;;;;;;90.63;50.00;;;3.50;1.00;;;;;;4991595;28;20230;-71
2020/12/13 03:16:15;;;;;;;89.88;47.95;;;3.60;1.00;;;;;;5024884;28;20214;-72
2020/12/13 03:18:42;;;;;;;85.10;46.70;;;3.60;1.00;;;;;;4991514;28;20313;-72
2020/12/13 03:21:08;;;;;;;86.18;47.50;;;3.60;1.00;;;;;;5003503;28;20274;-72
2020/12/13 03:23:34;;;;;;;89.18;47.75;;;3.60;1.00;;;;;;4984608;28;20219;-72
2020/12/13 03:26:00;;;;;;;84.93;49.40;;;3.60;1.00;;;;;;5006552;28;20231;-73
2020/12/13 03:28:26;;;;;;;90.50;49.90;;;3.60;1.00;;;;;;4980688;28;20298;-72
2020/12/13 03:30:53;;;;;;;95.68;50.63;;;3.60;1.00;;;;;;5008879;28;20301;-73
2020/12/13 03:33:20;;;;;;;87.75;48.42;;;3.60;1.00;;;;;;5007022;28;20238;-72
2020/12/13 03:35:46;;;;;;;92.38;49.63;;;3.60;1.00;;;;;;4988100;28;20233;-73
2020/12/13 03:38:12;;;;;;;90.15;50.20;;;3.60;1.00;;;;;;5008531;28;20226;-73
2020/12/13 03:40:39;;;;;;;94.03;49.35;;;3.60;1.00;;;;;;4987666;28;20288;-73
2020/12/13 03:43:05;;;;;;;91.20;52.03;;;3.60;1.00;;;;;;5006101;28;20227;-73
2020/12/13 03:45:31;;;;;;;87.13;47.78;;;3.60;1.00;;;;;;4989985;28;20249;-73
2020/12/13 03:47:58;;;;;;;87.47;50.22;;;3.60;1.00;;;;;;5011864;28;20267;-73
2020/12/13 03:50:24;;;;;;;86.03;47.17;;;3.60;1.00;;;;;;4980372;28;20235;-73
2020/12/13 03:52:50;;;;;;;86.78;47.20;;;3.60;1.00;;;;;;5011898;28;20238;-73
2020/12/13 03:55:17;;;;;;;82.70;49.45;;;3.60;1.00;;;;;;4980002;28;20246;-73
2020/12/13 03:57:44;;;;;;;89.78;49.25;;;3.60;1.00;;;;;;5010761;28;20234;-73
2020/12/13 04:00:10;;;;;;;91.95;50.25;;;3.70;1.00;;;;;;4983247;28;20314;-73
2020/12/13 04:02:36;;;;;;;82.72;47.30;;;3.70;1.00;;;;;;5005961;28;20306;-73
2020/12/13 04:05:04;;;;;;;90.03;47.45;;;3.70;1.00;;;;;;4983612;28;20215;-74
2020/12/13 04:07:30;;;;;;;97.97;48.88;;;3.70;1.00;;;;;;5007206;28;20231;-73
2020/12/13 04:09:56;;;;;;;83.65;47.20;;;3.70;1.00;;;;;;4995349;28;20254;-73
2020/12/13 04:12:22;;;;;;;84.35;47.80;;;3.70;1.00;;;;;;5003443;28;20318;-74
2020/12/13 04:15:11;;;;;;;98.75;49.08;;;3.70;1.00;;;;;;5015094;28;20219;-73
2020/12/13 04:17:38;;;;;;;86.28;49.03;;;3.70;1.00;;;;;;5003257;28;20229;-71
2020/12/13 04:20:06;;;;;;;91.00;50.22;;;3.70;1.00;;;;;;5011684;28;20226;-74
2020/12/13 04:22:32;;;;;;;89.60;45.92;;;3.70;1.00;;;;;;5002241;28;20266;-72
2020/12/13 04:24:58;;;;;;;89.43;47.65;;;3.80;1.00;;;;;;5009972;28;20231;-73
2020/12/13 04:27:24;;;;;;;89.45;48.47;;;3.80;1.00;;;;;;4996988;28;20223;-72
2020/12/13 04:29:51;;;;;;;83.78;48.75;;;3.80;1.00;;;;;;5014796;28;20649;-71
2020/12/13 04:32:17;;;;;;;84.93;50.20;;;3.80;1.00;;;;;;4987303;28;20322;-72
2020/12/13 04:34:43;;;;;;;93.40;51.03;;;3.80;1.00;;;;;;5005526;28;20341;-72
2020/12/13 04:37:11;;;;;;;91.97;48.00;;;3.80;1.00;;;;;;4998074;28;20236;-72
2020/12/13 04:39:37;;;;;;;93.18;50.20;;;3.80;1.00;;;;;;5011916;28;20737;-72
2020/12/13 04:42:04;;;;;;;79.28;47.45;;;3.80;1.00;;;;;;4993069;28;20229;-72
2020/12/13 04:44:31;;;;;;;93.82;49.72;;;3.80;1.00;;;;;;5014012;28;20223;-73
2020/12/13 04:47:03;;;;;;;84.43;45.67;;;3.70;1.00;;;;;;4986364;28;20230;-72
2020/12/13 04:49:31;;;;;;;86.18;47.58;;;3.70;1.00;;;;;;5012828;28;20223;-73
2020/12/13 04:51:58;;;;;;;90.60;49.38;;;3.70;1.00;;;;;;4985188;28;20238;-73
2020/12/13 04:54:26;;;;;;;100.72;50.55;;;3.70;1.00;;;;;;5012381;28;20240;-73
2020/12/13 04:56:54;;;;;;;98.63;49.13;;;3.70;1.00;;;;;;4988365;28;20222;-73
2020/12/13 04:59:20;;;;;;;96.10;49.00;;;3.70;1.00;;;;;;5013952;28;20621;-73
2020/12/13 05:01:47;;;;;;;100.60;50.92;;;3.70;1.00;;;;;;5015794;28;20274;-73
2020/12/13 05:04:14;;;;;;;94.30;51.80;;;3.70;1.00;;;;;;4993291;28;20231;-73
2020/12/13 05:06:41;;;;;;;93.70;51.00;;;3.80;1.00;;;;;;5005062;28;20311;-73
2020/12/13 05:09:09;;;;;;;85.53;47.95;;;3.80;1.00;;;;;;4992739;28;20326;-74
2020/12/13 05:11:38;;;;;;;99.07;49.10;;;3.80;1.00;;;;;;5010962;28;20279;-73
2020/12/13 05:14:04;;;;;;;106.15;51.35;;;3.80;1.00;;;;;;5006644;28;20619;-73
2020/12/13 05:16:30;;;;;;;100.97;50.30;;;3.70;1.00;;;;;;5026133;28;20352;-72
2020/12/13 05:18:56;;;;;;;91.68;51.15;;;3.70;1.00;;;;;;5003597;28;21435;-72
2020/12/13 05:21:24;;;;;;;104.28;50.97;;;3.70;1.00;;;;;;5030384;28;20286;-73
2020/12/13 05:23:50;;;;;;;105.82;52.60;;;3.60;1.00;;;;;;4992938;28;20223;-72
2020/12/13 05:26:17;;;;;;;99.40;50.63;;;3.60;1.00;;;;;;5012811;28;20226;-72
2020/12/13 05:28:47;;;;;;;100.20;48.45;;;3.60;1.00;;;;;;4988958;28;21099;-72
2020/12/13 05:31:16;;;;;;;83.55;47.83;;;3.50;1.00;;;;;;5011073;28;20226;-73
2020/12/13 05:33:45;;;;;;;91.63;47.67;;;3.60;1.00;;;;;;4984872;28;20231;-73
2020/12/13 05:36:15;;;;;;;95.20;49.65;;;3.60;1.00;;;;;;5006822;28;20297;-73
2020/12/13 05:38:42;;;;;;;91.05;46.80;;;3.60;1.00;;;;;;4984890;28;20259;-73
2020/12/13 05:41:09;;;;;;;96.00;47.08;;;3.60;1.00;;;;;;5007565;28;20258;-73
2020/12/13 05:43:39;;;;;;;93.70;48.00;;;3.60;1.00;;;;;;4999414;28;20310;-72
2020/12/13 05:46:37;;;;;;;93.68;48.97;;;3.60;1.00;;;;;;5004907;28;20219;-73
2020/12/13 05:51:59;;;;;;;92.20;48.63;;;3.70;1.00;;;;;;5013944;28;20258;-73
2020/12/13 05:54:26;;;;;;;95.40;48.38;;;3.70;1.00;;;;;;5002044;28;20227;-73
2020/12/13 05:56:56;;;;;;;88.55;47.20;;;3.70;1.00;;;;;;5008499;28;20226;-73
2020/12/13 05:59:24;;;;;;;78.68;46.50;;;3.70;1.00;;;;;;5003425;28;20215;-72
2020/12/13 06:01:53;;;;;;;86.20;46.40;;;3.70;1.00;;;;;;5011461;28;20288;-72
2020/12/13 06:04:25;;;;;;;74.22;43.88;;;3.80;1.00;;;;;;5014717;28;20235;-73
2020/12/13 06:06:54;;;;;;;75.43;41.80;;;3.80;1.00;;;;;;4998379;28;20282;-73
2020/12/13 06:09:31;;;;;;;79.25;44.78;;;3.80;1.00;;;;;;5001589;28;20894;-73
2020/12/13 06:12:02;;;;;;;83.88;45.45;;;3.70;1.00;;;;;;4996503;28;20732;-72
2020/12/13 06:14:28;;;;;;;81.72;45.75;;;3.70;1.00;;;;;;4998386;28;20223;-73
2020/12/13 06:16:56;;;;;;;69.13;41.63;;;3.70;1.00;;;;;;4990363;28;20319;-73
2020/12/13 06:19:24;;;;;;;78.50;44.28;;;3.70;1.00;;;;;;4999753;28;20229;-73
2020/12/13 06:21:52;;;;;;;76.55;45.38;;;3.70;1.00;;;;;;4991118;28;20303;-73
2020/12/13 06:24:18;;;;;;;75.55;44.40;;;3.70;1.00;;;;;;5001442;28;20940;-73
2020/12/13 06:26:45;;;;;;;77.18;44.88;;;3.80;1.00;;;;;;4994553;28;20903;-73
2020/12/13 06:29:11;;;;;;;74.72;45.00;;;3.80;1.00;;;;;;5007433;28;20211;-73
2020/12/13 06:31:39;;;;;;;72.53;43.08;;;3.90;1.00;;;;;;5010912;28;20239;-73
2020/12/13 06:34:07;;;;;;;76.18;45.40;;;3.90;1.00;;;;;;5022370;28;20227;-73
2020/12/13 06:36:35;;;;;;;82.63;45.97;;;3.90;1.00;;;;;;4964406;28;20229;-73
2020/12/13 06:39:06;;;;;;;72.07;43.97;;;3.80;1.00;;;;;;4954914;28;20218;-72
2020/12/13 06:41:35;;;;;;;78.53;46.45;;;3.80;1.00;;;;;;4992468;28;20245;-72
2020/12/13 06:44:04;;;;;;;68.80;43.33;;;3.80;1.00;;;;;;4959542;28;20231;-73
2020/12/13 06:46:31;;;;;;;78.28;44.17;;;3.80;1.00;;;;;;4999230;28;20227;-73
2020/12/13 06:48:58;;;;;;;71.57;42.25;;;3.80;1.00;;;;;;4984880;28;20219;-73
2020/12/13 06:51:33;;;;;;;77.30;42.22;;;3.80;1.00;;;;;;4954877;28;20238;-73
2020/12/13 06:53:59;;;;;;;66.93;41.67;;;3.80;1.00;;;;;;4999184;28;20234;-73
2020/12/13 06:56:26;;;;;;;75.30;43.83;;;3.80;1.00;;;;;;4986354;28;20222;-73
2020/12/13 06:58:57;;;;;;;66.13;42.38;;;3.80;1.00;;;;;;4999854;28;20242;-73
2020/12/13 07:01:26;;;;;;;72.78;42.85;;;3.70;1.00;;;;;;4981472;28;20668;-72
2020/12/13 07:03:53;;;;;;;73.80;41.42;;;3.70;1.00;;;;;;5006115;28;20246;-74
2020/12/13 07:06:25;;;;;;;66.60;41.03;;;3.60;1.00;;;;;;4977782;28;20313;-73
2020/12/13 07:08:55;;;;;;;72.05;43.05;;;3.70;1.00;;;;;;5003257;28;20984;-73
2020/12/13 07:11:25;;;;;;;77.18;41.78;;;3.60;1.00;;;;;;4978262;28;20347;-73
2020/12/13 07:13:52;;;;;;;71.60;42.85;;;3.60;1.00;;;;;;4994554;28;20242;-72
2020/12/13 07:16:30;;;;;;;69.30;42.45;;;3.60;1.00;;;;;;4977988;28;20222;-73
2020/12/13 07:19:05;;;;;;;75.35;41.70;;;3.70;1.00;;;;;;5002686;28;20706;-72
2020/12/13 07:21:31;;;;;;;74.93;44.22;;;3.70;1.00;;;;;;4979123;28;20237;-73
2020/12/13 07:24:00;;;;;;;70.22;41.50;;;3.80;1.00;;;;;;4991036;28;20263;-73
2020/12/13 07:26:28;;;;;;;65.63;42.17;;;3.80;1.00;;;;;;4975690;28;20218;-72
2020/12/13 07:28:55;;;;;;;73.47;40.13;;;3.80;1.00;;;;;;4997099;28;20227;-73
2020/12/13 07:31:24;;;;;;;75.63;41.63;;;3.80;1.00;;;;;;4980515;28;20599;-73
2020/12/13 07:33:51;;;;;;;75.57;43.83;;;3.90;1.00;;;;;;5001841;28;20242;-73
2020/12/13 07:36:17;;;;;;;65.43;41.42;;;3.90;1.00;;;;;;4979595;28;21111;-73
2020/12/13 07:38:44;;;;;;;68.40;41.65;;;3.90;1.00;;;;;;5002534;28;20259;-74
2020/12/13 07:41:18;;;;;;;70.20;41.67;;;4.00;1.00;;;;;;4999340;28;20228;-74
2020/12/13 07:43:52;;;;;;;68.38;39.92;;;4.00;1.00;;;;;;4992351;28;20301;-73
2020/12/13 07:46:18;;;;;;;74.63;44.78;;;4.00;1.00;;;;;;5000383;28;20245;-73
2020/12/13 07:48:44;;;;;;;70.32;40.70;;;4.10;1.00;;;;;;4982562;28;20267;-73
2020/12/13 07:51:11;;;;;;;60.00;39.50;;;4.10;1.00;;;;;;4992254;28;20248;-74
2020/12/13 07:53:37;;;;;;;74.28;41.42;;;4.10;1.00;;;;;;4976590;28;20227;-73
2020/12/13 07:56:03;;;;;;;62.75;40.88;;;4.10;1.00;;;;;;4998380;28;20251;-73
2020/12/13 07:58:30;;;;;;;62.42;38.55;;;4.10;1.00;;;;;;4964991;28;20238;-73
2020/12/13 08:01:09;;;;;;;63.67;40.78;;;4.20;1.00;;;;;;4997080;28;21422;-73
2020/12/13 08:03:42;;;;;;;65.72;40.08;;;4.10;1.00;;;;;;4974772;28;20338;-73
2020/12/13 08:06:09;;;;;;;67.78;40.08;;;4.10;1.00;;;;;;4997083;28;20291;-73
2020/12/13 08:08:42;;;;;;;64.10;40.13;;;4.20;1.00;;;;;;4975205;28;20326;-73
2020/12/13 08:11:11;;;;;;;65.88;38.58;;;4.10;1.00;;;;;;5006755;28;20225;-73
2020/12/13 08:13:45;;;;;;;60.70;40.53;;;4.10;1.00;;;;;;4981950;28;20239;-73
2020/12/13 08:16:13;;;;;;;67.80;38.20;;;4.10;1.00;;;;;;5007622;28;20324;-75
2020/12/13 08:18:43;;;;;;;60.50;40.45;;;4.10;1.00;;;;;;4970596;28;20230;-73
2020/12/13 08:21:12;;;;;;;58.20;39.50;;;4.10;1.00;;;;;;4994711;28;20214;-73
2020/12/13 08:23:38;;;;;;;60.63;39.80;;;4.10;1.00;;;;;;4971888;28;20228;-73
2020/12/13 08:26:06;;;;;;;61.88;40.10;;;4.10;1.00;;;;;;4996514;28;20233;-73
2020/12/13 08:28:33;;;;;;;56.00;39.22;;;4.20;1.00;;;;;;4981772;28;20222;-73
2020/12/13 08:31:01;;;;;;;61.97;39.03;;;4.20;1.00;;;;;;4992715;28;20224;-73
2020/12/13 08:33:29;;;;;;;61.72;40.30;;;4.20;1.00;;;;;;4975140;28;20675;-73
2020/12/13 08:35:57;;;;;;;59.90;38.85;;;4.20;1.00;;;;;;4999931;28;20295;-74
2020/12/13 08:38:23;;;;;;;61.50;38.25;;;4.30;1.00;;;;;;5008106;28;20320;-73
2020/12/13 08:40:51;;;;;;;52.60;37.05;;;4.30;1.00;;;;;;4977440;28;20306;-73
2020/12/13 08:43:18;;;;;;;58.05;36.72;;;4.30;1.00;;;;;;4996770;28;20226;-74
2020/12/13 08:45:52;;;;;;;59.22;40.83;;;4.30;1.00;;;;;;4974304;28;21145;-72
2020/12/13 08:48:24;;;;;;;71.03;41.33;;;4.30;1.00;;;;;;5013410;28;20231;-74
2020/12/13 08:51:03;;;;;;;61.83;41.13;;;4.20;1.00;;;;;;4897484;28;20235;-73
2020/12/13 08:53:30;;;;;;;60.20;37.58;;;4.30;1.00;;;;;;4986876;28;20241;-73
2020/12/13 08:56:03;;;;;;;59.17;37.55;;;4.30;1.00;;;;;;4964374;28;20323;-72
2020/12/13 08:58:30;;;;;;;57.00;39.30;;;4.30;1.00;;;;;;4988977;28;20235;-72
2020/12/13 09:01:06;;;;;;;58.47;38.08;;;4.30;1.00;;;;;;4972241;28;21039;-73
2020/12/13 09:03:33;;;;;;;57.78;38.10;;;4.40;1.00;;;;;;4995410;28;20580;-73
2020/12/13 09:06:00;;;;;;;53.67;37.42;;;4.50;1.00;;;;;;4964024;28;21791;-73
2020/12/13 09:08:26;;;;;;;58.17;38.58;;;4.50;1.00;;;;;;4992689;28;20234;-73
2020/12/13 09:10:53;;;;;;;55.13;36.63;;;4.60;1.00;;;;;;4964717;28;20334;-73
2020/12/13 09:13:19;;;;;;;55.95;38.53;;;4.60;1.00;;;;;;4990587;28;20249;-72
2020/12/13 09:15:46;;;;;;;51.75;36.78;;;4.70;1.00;;;;;;4985226;28;23457;-73
2020/12/13 09:18:12;;;;;;;53.00;35.70;;;4.60;1.00;;;;;;4997556;28;20328;-73
2020/12/13 09:20:41;;;;;;;52.90;34.35;;;4.50;1.00;;;;;;4994500;28;20234;-73
2020/12/13 09:23:09;;;;;;;47.03;35.50;;;4.50;1.00;;;;;;4963230;28;20240;-73
2020/12/13 09:25:37;;;;;;;47.92;34.38;;;4.60;1.00;;;;;;4993600;28;20238;-73
2020/12/13 09:28:04;;;;;;;51.33;34.72;;;4.70;1.00;;;;;;4968259;28;24059;-73
2020/12/13 09:30:30;;;;;;;55.80;36.65;;;4.70;1.00;;;;;;4993092;28;20219;-73
2020/12/13 09:32:57;;;;;;;56.05;36.40;;;4.80;1.00;;;;;;4964696;28;20328;-73
2020/12/13 09:35:23;;;;;;;50.92;34.75;;;4.80;1.00;;;;;;4995847;28;20226;-73
2020/12/13 09:37:51;;;;;;;53.35;35.47;;;4.70;1.00;;;;;;4966698;28;20222;-73
2020/12/13 09:40:17;;;;;;;50.10;36.85;;;4.80;1.00;;;;;;4993082;28;20237;-72
2020/12/13 09:42:44;;;;;;;48.92;36.92;;;4.80;1.00;;;;;;4967089;28;20227;-73
2020/12/13 09:45:10;;;;;;;56.05;37.67;;;4.90;1.00;;;;;;4994994;28;20242;-75
2020/12/13 09:47:36;;;;;;;47.90;35.67;;;4.90;1.00;;;;;;4979256;28;20883;-73
2020/12/13 09:50:03;;;;;;;56.83;37.45;;;5.00;1.00;;;;;;5021536;28;20214;-71
2020/12/13 09:52:31;;;;;;;54.95;37.17;;;5.10;1.00;;;;;;4984385;28;20357;-73
2020/12/13 09:54:58;;;;;;;55.75;38.40;;;5.10;1.00;;;;;;4995182;28;20314;-73
2020/12/13 09:57:24;;;;;;;54.03;38.28;;;5.10;1.00;;;;;;4980280;28;20223;-72
2020/12/13 09:59:50;;;;;;;54.05;37.00;;;5.10;1.00;;;;;;4987695;28;20224;-73
2020/12/13 10:02:17;;;;;;;51.08;35.85;;;5.10;1.00;;;;;;4996798;28;20229;-73
2020/12/13 10:04:44;;;;;;;58.25;37.45;;;5.10;1.00;;;;;;4971809;28;20227;-73
2020/12/13 10:07:20;;;;;;;48.05;35.38;;;5.20;1.00;;;;;;4995178;28;20227;-72
2020/12/13 10:09:45;;;;;;;53.17;37.80;;;5.20;1.00;;;;;;4978439;28;20227;-72
2020/12/13 10:12:12;;;;;;;58.27;39.20;;;5.00;1.00;;;;;;4996504;28;20274;-72
2020/12/13 10:14:38;;;;;;;52.97;37.15;;;5.00;1.00;;;;;;4977423;28;20317;-72
2020/12/13 10:17:06;;;;;;;50.33;35.75;;;5.10;1.00;;;;;;5007051;28;20274;-73
2020/12/13 10:19:32;;;;;;;56.05;38.42;;;5.20;1.00;;;;;;4989965;28;20220;-75
2020/12/13 10:21:59;;;;;;;53.65;38.65;;;5.10;1.00;;;;;;4996786;28;20227;-71
2020/12/13 10:24:25;;;;;;;55.65;38.75;;;5.10;1.00;;;;;;4999733;28;20231;-74
2020/12/13 10:26:53;;;;;;;54.05;38.45;;;5.20;1.00;;;;;;5009769;28;21003;-74
2020/12/13 10:29:20;;;;;;;54.33;37.10;;;5.10;1.00;;;;;;5011328;28;20219;-74
2020/12/13 10:31:46;;;;;;;52.33;35.60;;;5.20;1.00;;;;;;5010628;28;20227;-73
2020/12/13 10:34:14;;;;;;;52.60;36.20;;;5.20;1.00;;;;;;5009140;28;21491;-73
2020/12/13 10:36:41;;;;;;;51.72;37.10;;;5.30;1.00;;;;;;5008298;28;20223;-74
2020/12/13 10:39:09;;;;;;;58.03;38.50;;;5.40;1.00;;;;;;5005302;28;20226;-73
2020/12/13 10:41:36;;;;;;;56.17;35.83;;;5.30;1.00;;;;;;5008898;28;20289;-73
2020/12/13 10:44:03;;;;;;;49.88;33.80;;;5.20;1.00;;;;;;5013289;28;20544;-73
2020/12/13 10:46:30;;;;;;;53.65;36.78;;;5.20;1.00;;;;;;5008185;28;20235;-73
2020/12/13 10:48:57;;;;;;;55.60;36.85;;;5.20;1.00;;;;;;5006318;28;20219;-73
2020/12/13 10:51:23;;;;;;;50.60;35.75;;;5.30;1.00;;;;;;5005340;28;20232;-73
2020/12/13 10:53:49;;;;;;;54.60;36.33;;;5.30;1.00;;;;;;5013204;28;20822;-73
2020/12/13 10:56:17;;;;;;;51.75;37.15;;;5.40;1.00;;;;;;5007937;28;20306;-72
2020/12/13 10:58:44;;;;;;;50.55;35.92;;;5.40;1.00;;;;;;5010338;28;20251;-71
2020/12/13 11:01:11;;;;;;;52.20;35.53;;;5.50;1.00;;;;;;5010311;28;20250;-73
2020/12/13 11:03:39;;;;;;;43.88;33.63;;;5.50;1.00;;;;;;5010240;28;20282;-72
2020/12/13 11:06:09;;;;;;;52.35;37.78;;;5.70;1.00;;;;;;5009634;28;20235;-74
2020/12/13 11:08:36;;;;;;;52.67;36.90;;;5.80;1.00;;;;;;5010331;28;20321;-71
2020/12/13 11:11:03;;;;;;;46.65;34.17;;;5.90;1.00;;;;;;5005990;28;20233;-74
2020/12/13 11:13:29;;;;;;;48.38;34.38;;;6.10;1.00;;;;;;5010237;28;20321;-74
2020/12/13 11:15:55;;;;;;;49.28;36.50;;;6.10;1.00;;;;;;5005653;28;20729;-74
2020/12/13 11:18:22;;;;;;;54.72;38.88;;;6.00;1.00;;;;;;5014781;28;20393;-73
2020/12/13 11:20:48;;;;;;;51.95;36.83;;;5.80;1.00;;;;;;5005792;28;20976;-73
2020/12/13 11:23:15;;;;;;;54.75;37.70;;;5.70;1.00;;;;;;5014568;28;20385;-73
2020/12/13 11:25:41;;;;;;;51.08;36.55;;;5.80;1.00;;;;;;5029298;28;20195;-74
2020/12/13 11:28:07;;;;;;;54.45;39.53;;;5.80;1.00;;;;;;5022860;28;20306;-73
2020/12/13 11:30:34;;;;;;;56.35;38.97;;;5.90;1.00;;;;;;5031149;28;20290;-72
2020/12/13 11:33:00;;;;;;;78.55;54.85;;;5.90;1.00;;;;;;5021890;28;20322;-74
2020/12/13 11:35:27;;;;;;;56.85;39.35;;;6.00;1.00;;;;;;5008002;28;20207;-74
2020/12/13 11:37:54;;;;;;;53.67;37.17;;;5.90;1.00;;;;;;5008078;28;20318;-74
2020/12/13 11:40:20;;;;;;;54.40;37.35;;;5.90;1.00;;;;;;5009738;28;20223;-76
2020/12/13 11:42:46;;;;;;;53.78;39.42;;;6.00;1.00;;;;;;4985543;28;20231;-74
2020/12/13 11:45:13;;;;;;;55.72;39.50;;;6.00;1.00;;;;;;5005323;28;20989;-76
2020/12/13 11:47:40;;;;;;;60.00;40.65;;;6.00;1.00;;;;;;4989769;28;20302;-78
2020/12/13 11:50:06;;;;;;;55.17;40.47;;;6.20;1.00;;;;;;5007102;28;20233;-76
2020/12/13 11:52:32;;;;;;;56.70;40.35;;;6.20;1.00;;;;;;5000150;28;20322;-77
2020/12/13 11:54:59;;;;;;;50.58;38.28;;;6.30;1.00;;;;;;5009924;28;20285;-76
2020/12/13 11:57:26;;;;;;;53.45;39.70;;;6.30;1.00;;;;;;4997492;28;20334;-76
2020/12/13 11:59:52;;;;;;;53.90;41.20;;;6.20;1.00;;;;;;5003284;28;20223;-76
2020/12/13 12:02:19;;;;;;;52.10;37.25;;;6.20;1.00;;;;;;4993960;28;20223;-76
2020/12/13 12:04:45;;;;;;;56.35;38.95;;;6.20;1.00;;;;;;5009378;28;20743;-76
2020/12/13 12:07:12;;;;;;;57.15;41.58;;;6.20;1.00;;;;;;5008879;28;20307;-76
2020/12/13 12:09:38;;;;;;;50.28;37.40;;;6.20;1.00;;;;;;4988589;28;20615;-76
2020/12/13 12:12:05;;;;;;;52.85;39.10;;;6.20;1.00;;;;;;5005639;28;20227;-75
2020/12/13 12:14:31;;;;;;;56.15;38.10;;;6.30;1.00;;;;;;4988037;28;20725;-75
2020/12/13 12:16:58;;;;;;;57.33;40.42;;;6.30;1.00;;;;;;5006184;28;20674;-75
2020/12/13 12:19:24;;;;;;;61.33;39.85;;;6.40;1.00;;;;;;4991056;28;20306;-75
2020/12/13 12:21:51;;;;;;;58.78;40.67;;;6.40;1.00;;;;;;5001157;28;20227;-76
2020/12/13 12:24:20;;;;;;;57.22;37.70;;;6.50;1.00;;;;;;4989917;28;20226;-76
2020/12/13 12:26:47;;;;;;;53.22;38.03;;;6.60;1.00;;;;;;5007035;28;20884;-75
2020/12/13 12:29:14;;;;;;;59.83;40.33;;;6.70;1.00;;;;;;4990278;28;20229;-75
2020/12/13 12:31:41;;;;;;;51.83;38.05;;;6.80;1.00;;;;;;5011577;28;20329;-76
2020/12/13 12:34:07;;;;;;;56.35;41.78;;;6.80;1.00;;;;;;4992189;28;20243;-76
2020/12/13 12:36:33;;;;;;;60.67;40.53;;;6.80;1.00;;;;;;5011749;28;21153;-75
2020/12/13 12:39:00;;;;;;;56.75;39.35;;;6.80;1.00;;;;;;4990133;28;20247;-75
2020/12/13 12:41:26;;;;;;;53.03;38.72;;;6.80;1.00;;;;;;5006032;28;20242;-75
2020/12/13 12:43:52;;;;;;;59.13;41.97;;;6.80;1.00;;;;;;4994165;28;20321;-76
2020/12/13 12:46:19;;;;;;;59.28;40.72;;;6.90;1.00;;;;;;5005154;28;20558;-76
2020/12/13 12:48:48;;;;;;;54.88;38.88;;;7.00;1.00;;;;;;5009008;28;20306;-75
2020/12/13 12:51:16;;;;;;;55.05;40.90;;;7.00;1.00;;;;;;4987938;28;20218;-75